Time;durP1;ratioP1;P1;durP2;ratioP2;P2;SDS_P1;SDS_P2;PMS_P1;PMS_P2;Temp;Humidity;BMP_temperature;BMP_pressure;BME280_temperature;BME280_humidity;BME280_pressure;Samples;Min_cycle;Max_cycle;Signal;HPM_P1;HPM_P2
2023/06/27 00:01:27;;;;;;;5.72;2.10;;;15.00;99.90;;;;;;5103439;27;20043;-88
2023/06/27 00:03:54;;;;;;;7.63;1.67;;;14.90;99.90;;;;;;5119946;27;20092;-89
2023/06/27 00:06:21;;;;;;;7.88;1.90;;;14.90;99.90;;;;;;5120376;27;20036;-89
2023/06/27 00:08:48;;;;;;;6.15;2.00;;;14.90;99.90;;;;;;5106048;27;20122;-89
2023/06/27 00:11:16;;;;;;;5.72;1.90;;;14.90;99.90;;;;;;5157398;27;20038;-89
2023/06/27 00:13:43;;;;;;;5.63;1.88;;;14.80;99.90;;;;;;5140319;27;20046;-89
2023/06/27 00:16:13;;;;;;;8.77;2.20;;;14.80;99.90;;;;;;5157589;27;20042;-89
2023/06/27 00:18:42;;;;;;;5.80;2.08;;;14.80;99.90;;;;;;5141300;27;20035;-89
2023/06/27 00:21:08;;;;;;;6.97;2.00;;;14.80;99.90;;;;;;5136589;27;20035;-89
2023/06/27 00:23:35;;;;;;;8.57;2.42;;;14.80;99.90;;;;;;5120019;27;20108;-89
2023/06/27 00:26:03;;;;;;;7.93;1.95;;;14.70;99.90;;;;;;5119753;27;20095;-89
2023/06/27 00:28:30;;;;;;;5.13;1.90;;;14.70;99.90;;;;;;5136755;27;20044;-88
2023/06/27 00:30:56;;;;;;;6.45;2.33;;;14.70;99.90;;;;;;5134705;27;20563;-89
2023/06/27 00:33:23;;;;;;;6.07;2.03;;;14.80;99.90;;;;;;5123242;27;20038;-89
2023/06/27 00:35:51;;;;;;;7.03;2.15;;;14.70;99.90;;;;;;5139917;27;20043;-88
2023/06/27 00:38:18;;;;;;;6.78;2.25;;;14.60;99.90;;;;;;5140322;27;20119;-88
2023/06/27 00:40:44;;;;;;;5.93;2.40;;;14.60;99.90;;;;;;5157615;27;20129;-89
2023/06/27 00:43:11;;;;;;;6.65;2.50;;;14.60;99.90;;;;;;5123002;27;20054;-88
2023/06/27 00:45:38;;;;;;;8.43;2.80;;;14.70;99.90;;;;;;5156742;27;20035;-89
2023/06/27 00:48:05;;;;;;;6.82;2.33;;;14.60;99.90;;;;;;5156964;27;20045;-89
2023/06/27 00:50:31;;;;;;;6.15;2.05;;;14.60;99.90;;;;;;5156552;27;20380;-89
2023/06/27 00:53:00;;;;;;;9.70;2.35;;;14.60;99.90;;;;;;5139888;27;20034;-89
2023/06/27 00:55:28;;;;;;;9.65;2.05;;;14.60;99.90;;;;;;5156652;27;20035;-89
2023/06/27 00:57:55;;;;;;;7.57;2.25;;;14.60;99.90;;;;;;5140314;27;20050;-89
2023/06/27 01:00:22;;;;;;;5.00;2.10;;;14.60;99.90;;;;;;5122771;27;20134;-88
2023/06/27 01:02:48;;;;;;;5.45;2.13;;;14.50;99.90;;;;;;5123166;27;20041;-89
2023/06/27 01:05:17;;;;;;;11.85;2.30;;;14.60;99.90;;;;;;5122525;27;20399;-89
2023/06/27 01:07:56;;;;;;;5.78;2.33;;;14.50;99.90;;;;;;5139199;27;20109;-89
2023/06/27 01:10:33;;;;;;;8.52;2.33;;;14.50;99.90;;;;;;5173462;27;20042;-89
2023/06/27 01:12:59;;;;;;;7.00;2.30;;;14.50;99.90;;;;;;5156309;27;20122;-90
2023/06/27 01:15:27;;;;;;;8.65;2.50;;;14.50;99.90;;;;;;5155822;27;20089;-89
2023/06/27 01:17:54;;;;;;;7.90;2.38;;;14.40;99.90;;;;;;5156353;27;20417;-90
2023/06/27 01:20:21;;;;;;;8.43;2.35;;;14.40;99.90;;;;;;5139316;27;20101;-89
2023/06/27 01:23:01;;;;;;;9.57;2.30;;;14.40;99.90;;;;;;5121801;27;20043;-88
2023/06/27 01:25:30;;;;;;;11.10;2.40;;;14.40;99.90;;;;;;5155881;27;20065;-89
2023/06/27 01:27:57;;;;;;;8.55;2.80;;;14.40;99.90;;;;;;5139235;27;20038;-90
2023/06/27 01:30:23;;;;;;;5.70;2.17;;;14.40;99.90;;;;;;5138904;27;20391;-89
2023/06/27 01:32:59;;;;;;;8.70;2.50;;;14.40;99.90;;;;;;5121762;27;20054;-89
2023/06/27 01:35:45;;;;;;;6.60;2.30;;;14.40;99.90;;;;;;5155483;27;20075;-88
2023/06/27 01:38:20;;;;;;;5.38;2.40;;;14.40;99.90;;;;;;5156172;27;20182;-90
2023/06/27 01:40:49;;;;;;;4.57;2.40;;;14.40;99.90;;;;;;5155770;27;20047;-90
2023/06/27 01:43:16;;;;;;;6.55;2.45;;;14.40;99.90;;;;;;5138966;27;20130;-89
2023/06/27 01:45:43;;;;;;;6.13;2.15;;;14.30;99.90;;;;;;5122053;27;20042;-89
2023/06/27 01:48:11;;;;;;;6.93;2.47;;;14.30;99.90;;;;;;5156124;27;20039;-89
2023/06/27 01:50:38;;;;;;;6.30;2.10;;;14.30;99.90;;;;;;5121746;27;20094;-90
2023/06/27 01:53:05;;;;;;;5.50;2.42;;;14.30;99.90;;;;;;5121802;27;20047;-90
2023/06/27 01:55:32;;;;;;;8.07;2.05;;;14.30;99.90;;;;;;5121648;27;20099;-90
2023/06/27 01:58:00;;;;;;;4.78;2.10;;;14.30;99.90;;;;;;5122171;27;20034;-89
2023/06/27 02:00:27;;;;;;;5.57;2.30;;;14.30;99.90;;;;;;5122318;27;20117;-89
2023/06/27 02:02:54;;;;;;;4.97;2.15;;;14.30;99.90;;;;;;5138395;27;20471;-89
2023/06/27 02:05:21;;;;;;;6.32;2.03;;;14.30;99.90;;;;;;5138283;27;20062;-89
2023/06/27 02:07:47;;;;;;;4.55;2.30;;;14.20;99.90;;;;;;5138117;27;20052;-89
2023/06/27 02:10:14;;;;;;;6.85;2.47;;;14.20;99.90;;;;;;5121379;27;20490;-90
2023/06/27 02:12:41;;;;;;;4.32;2.15;;;14.20;99.90;;;;;;5121096;27;20045;-90
2023/06/27 02:15:08;;;;;;;6.78;2.30;;;14.20;99.90;;;;;;5138390;27;20318;-90
2023/06/27 02:17:35;;;;;;;5.90;2.30;;;14.20;99.90;;;;;;5138479;27;20034;-89
2023/06/27 02:20:02;;;;;;;8.45;2.78;;;14.20;99.90;;;;;;5138413;27;20558;-89
2023/06/27 02:22:28;;;;;;;8.18;2.10;;;14.20;99.90;;;;;;5121789;27;20183;-89
2023/06/27 02:24:55;;;;;;;7.53;2.30;;;14.20;99.90;;;;;;5134572;28;20092;-89
2023/06/27 02:27:22;;;;;;;8.45;2.45;;;14.20;99.90;;;;;;5136932;27;20066;-89
2023/06/27 02:29:48;;;;;;;7.85;2.33;;;14.20;99.90;;;;;;5138157;27;20042;-90
2023/06/27 02:32:15;;;;;;;6.75;2.40;;;14.10;99.90;;;;;;5121411;27;20037;-90
2023/06/27 02:34:42;;;;;;;7.25;2.05;;;14.10;99.90;;;;;;5137742;27;20102;-89
2023/06/27 02:37:08;;;;;;;8.25;2.10;;;14.10;99.90;;;;;;5121894;27;20113;-89
2023/06/27 02:39:35;;;;;;;7.20;2.53;;;14.10;99.90;;;;;;5138239;27;20031;-89
2023/06/27 02:42:02;;;;;;;6.65;2.00;;;14.10;99.90;;;;;;5154781;27;20086;-89
2023/06/27 02:44:28;;;;;;;8.57;2.53;;;14.10;99.90;;;;;;5138181;27;20513;-90
2023/06/27 02:46:55;;;;;;;7.00;2.25;;;14.10;99.90;;;;;;5155165;27;20042;-90
2023/06/27 02:49:22;;;;;;;4.82;2.10;;;14.10;99.90;;;;;;5121314;27;20038;-90
2023/06/27 02:51:49;;;;;;;7.60;2.50;;;14.00;99.90;;;;;;5137097;27;20045;-89
2023/06/27 02:54:16;;;;;;;8.98;2.53;;;14.00;99.90;;;;;;5120772;27;20130;-89
2023/06/27 02:56:43;;;;;;;5.65;2.33;;;14.00;99.90;;;;;;5133513;28;20070;-90
2023/06/27 02:59:10;;;;;;;7.50;2.53;;;13.90;99.90;;;;;;5116775;28;20483;-89
2023/06/27 03:01:37;;;;;;;9.00;3.03;;;14.00;99.90;;;;;;5116534;28;20035;-90
2023/06/27 03:04:04;;;;;;;7.65;2.63;;;13.60;99.90;;;;;;5100067;28;20049;-90
2023/06/27 03:06:30;;;;;;;9.82;2.80;;;13.90;99.90;;;;;;5145700;27;20504;-90
2023/06/27 03:08:58;;;;;;;5.70;2.50;;;13.90;99.90;;;;;;5137073;27;20494;-90
2023/06/27 03:11:24;;;;;;;10.15;2.90;;;13.90;99.90;;;;;;5121197;27;20034;-90
2023/06/27 03:13:51;;;;;;;5.47;2.55;;;13.90;99.90;;;;;;5137178;27;20384;-90
2023/06/27 03:16:18;;;;;;;6.97;2.50;;;13.90;99.90;;;;;;5116649;28;20038;-89
2023/06/27 03:18:44;;;;;;;6.70;2.42;;;13.90;99.90;;;;;;5116492;28;20039;-89
2023/06/27 03:21:11;;;;;;;5.32;2.33;;;13.90;99.90;;;;;;5099942;28;20057;-90
2023/06/27 03:23:38;;;;;;;5.90;2.53;;;13.90;99.90;;;;;;5116938;28;20043;-90
2023/06/27 03:26:04;;;;;;;5.45;2.58;;;13.90;99.90;;;;;;5102061;27;20092;-89
2023/06/27 03:28:31;;;;;;;7.20;2.67;;;13.80;99.90;;;;;;5120581;27;20038;-90
2023/06/27 03:30:58;;;;;;;7.80;2.72;;;13.80;99.90;;;;;;5137173;27;20106;-89
2023/06/27 03:33:24;;;;;;;7.35;2.60;;;13.70;99.90;;;;;;5137332;27;20451;-90
2023/06/27 03:35:55;;;;;;;5.45;2.50;;;13.80;99.90;;;;;;5137186;27;20091;-89
2023/06/27 03:38:22;;;;;;;6.55;2.85;;;13.70;99.90;;;;;;5139351;27;20042;-89
2023/06/27 03:40:49;;;;;;;8.32;3.20;;;13.80;99.90;;;;;;5140790;27;20046;-89
2023/06/27 03:43:16;;;;;;;7.75;2.85;;;13.80;99.90;;;;;;5140967;27;20058;-89
2023/06/27 03:45:42;;;;;;;6.32;2.67;;;13.80;99.90;;;;;;5124093;27;20031;-90
2023/06/27 03:48:09;;;;;;;6.32;2.50;;;13.80;99.90;;;;;;5158394;27;20045;-89
2023/06/27 03:50:36;;;;;;;7.40;2.85;;;13.80;99.90;;;;;;5124163;27;20043;-89
2023/06/27 03:53:03;;;;;;;4.95;2.53;;;13.80;99.90;;;;;;5124044;27;20091;-89
2023/06/27 03:55:32;;;;;;;4.72;2.75;;;13.70;99.90;;;;;;5140721;27;20160;-89
2023/06/27 03:58:00;;;;;;;6.85;2.67;;;13.80;99.90;;;;;;5124100;27;20039;-89
2023/06/27 04:00:27;;;;;;;7.25;2.88;;;13.70;99.90;;;;;;5140740;27;20038;-90
2023/06/27 04:02:54;;;;;;;9.30;3.05;;;13.70;99.90;;;;;;5123716;27;20398;-89
2023/06/27 04:05:20;;;;;;;8.98;2.80;;;13.80;99.90;;;;;;5123382;27;20079;-89
2023/06/27 04:07:47;;;;;;;8.40;2.95;;;13.70;99.90;;;;;;5119823;27;20035;-89
2023/06/27 04:10:14;;;;;;;5.95;2.92;;;13.70;99.90;;;;;;5120352;27;20068;-90
2023/06/27 04:12:41;;;;;;;7.32;2.80;;;13.70;99.90;;;;;;5136589;27;20136;-89
2023/06/27 04:15:08;;;;;;;7.63;2.80;;;13.80;99.90;;;;;;5102863;27;20047;-90
2023/06/27 04:17:34;;;;;;;7.20;2.70;;;13.90;99.90;;;;;;5136974;27;20088;-90
2023/06/27 04:20:02;;;;;;;6.30;2.78;;;13.80;99.90;;;;;;5102814;27;20048;-89
2023/06/27 04:22:28;;;;;;;7.38;2.70;;;13.80;99.90;;;;;;5137277;27;20046;-90
2023/06/27 04:24:58;;;;;;;8.27;3.40;;;13.90;99.90;;;;;;5119892;27;20126;-89
2023/06/27 04:27:25;;;;;;;5.97;2.88;;;13.90;99.90;;;;;;5104853;27;20027;-90
2023/06/27 04:29:51;;;;;;;7.55;3.08;;;13.90;99.90;;;;;;5136652;27;20542;-89
2023/06/27 04:32:18;;;;;;;5.57;3.00;;;14.00;99.90;;;;;;5140247;27;20049;-89
2023/06/27 04:34:45;;;;;;;9.32;3.70;;;14.00;99.90;;;;;;5139705;27;20176;-90
2023/06/27 04:37:11;;;;;;;12.18;3.35;;;14.00;99.90;;;;;;5122811;27;20502;-89
2023/06/27 04:39:38;;;;;;;8.27;3.70;;;14.10;99.90;;;;;;5119824;27;20393;-90
2023/06/27 04:42:05;;;;;;;9.98;3.30;;;14.10;99.90;;;;;;5103013;27;20086;-89
2023/06/27 04:44:32;;;;;;;7.60;3.50;;;14.10;99.90;;;;;;5104887;27;20448;-89
2023/06/27 04:46:59;;;;;;;9.40;2.50;;;14.20;99.90;;;;;;5102731;27;20039;-89
2023/06/27 04:49:25;;;;;;;7.07;2.90;;;14.20;99.90;;;;;;5102760;28;20035;-89
2023/06/27 04:51:52;;;;;;;7.90;3.45;;;14.20;99.90;;;;;;5102481;27;20043;-89
2023/06/27 04:54:19;;;;;;;8.48;3.22;;;14.30;99.90;;;;;;5151971;27;20049;-90
2023/06/27 04:56:45;;;;;;;9.63;2.95;;;14.30;99.90;;;;;;5136663;27;20479;-90
2023/06/27 04:59:12;;;;;;;6.40;2.88;;;14.30;99.90;;;;;;5102575;27;20039;-90
2023/06/27 05:01:39;;;;;;;9.52;2.92;;;14.40;99.90;;;;;;5119225;27;20118;-89
2023/06/27 05:04:06;;;;;;;7.25;2.80;;;14.40;99.90;;;;;;5102234;27;20168;-89
2023/06/27 05:06:33;;;;;;;6.63;2.28;;;14.40;99.90;;;;;;5119099;27;20171;-90
2023/06/27 05:09:01;;;;;;;5.85;2.28;;;14.50;99.90;;;;;;5118951;27;20397;-90
2023/06/27 05:11:28;;;;;;;5.13;2.38;;;14.60;99.90;;;;;;5119447;27;20031;-90
2023/06/27 05:13:54;;;;;;;5.97;2.40;;;14.70;99.90;;;;;;5118988;27;20061;-90
2023/06/27 05:16:22;;;;;;;5.85;2.30;;;14.70;99.90;;;;;;5119266;27;20035;-90
2023/06/27 05:18:48;;;;;;;6.80;2.25;;;14.80;99.90;;;;;;5119219;27;20066;-90
2023/06/27 05:21:15;;;;;;;10.38;2.85;;;14.90;99.90;;;;;;5124393;27;20066;-89
2023/06/27 05:23:43;;;;;;;5.03;1.92;;;15.00;99.90;;;;;;5118737;27;20039;-90
2023/06/27 05:26:09;;;;;;;7.70;2.13;;;15.00;99.90;;;;;;5102320;27;20344;-89
2023/06/27 05:28:36;;;;;;;5.70;1.92;;;15.10;99.90;;;;;;5119295;27;20038;-89
2023/06/27 05:31:03;;;;;;;7.05;2.20;;;15.20;99.90;;;;;;5118953;27;20035;-89
2023/06/27 05:33:30;;;;;;;9.27;2.20;;;15.30;99.90;;;;;;5102559;27;20488;-89
2023/06/27 05:35:57;;;;;;;6.68;2.00;;;15.30;99.90;;;;;;5105653;27;20114;-89
2023/06/27 05:38:24;;;;;;;6.20;2.00;;;15.40;99.90;;;;;;5105170;27;20039;-89
2023/06/27 05:40:50;;;;;;;6.43;2.30;;;15.50;99.90;;;;;;5152147;27;20496;-90
2023/06/27 05:43:17;;;;;;;6.55;1.98;;;15.60;99.90;;;;;;5135531;27;20077;-90
2023/06/27 05:45:44;;;;;;;6.07;2.00;;;15.60;99.90;;;;;;5106470;27;20171;-90
2023/06/27 05:48:11;;;;;;;7.20;1.88;;;15.70;99.90;;;;;;5138720;27;20128;-89
2023/06/27 05:50:38;;;;;;;7.70;2.10;;;15.80;99.90;;;;;;5138925;27;20078;-89
2023/06/27 05:53:04;;;;;;;7.93;2.08;;;15.90;99.90;;;;;;5138867;27;20043;-89
2023/06/27 05:55:31;;;;;;;5.50;2.00;;;16.00;99.90;;;;;;5168373;27;20491;-88
2023/06/27 05:57:58;;;;;;;9.00;2.15;;;16.10;99.90;;;;;;5157647;27;20038;-87
2023/06/27 06:00:25;;;;;;;8.60;2.00;;;16.10;99.90;;;;;;5141202;27;20508;-87
2023/06/27 06:02:52;;;;;;;6.47;1.90;;;16.20;99.90;;;;;;5141421;27;20461;-89
2023/06/27 06:05:18;;;;;;;4.22;1.90;;;16.30;99.90;;;;;;5175641;27;20030;-88
2023/06/27 06:07:45;;;;;;;5.70;1.90;;;16.30;99.90;;;;;;5159004;27;20034;-88
2023/06/27 06:10:12;;;;;;;8.27;2.08;;;16.40;99.90;;;;;;5154783;27;20038;-88
2023/06/27 06:12:39;;;;;;;5.50;2.00;;;16.50;99.90;;;;;;5141835;27;20046;-88
2023/06/27 06:15:06;;;;;;;8.07;1.90;;;16.50;99.90;;;;;;5175541;27;20026;-88
2023/06/27 06:17:33;;;;;;;6.88;1.95;;;16.60;99.90;;;;;;5141755;27;20113;-89
2023/06/27 06:20:00;;;;;;;5.15;1.92;;;16.80;99.90;;;;;;5158591;27;20038;-88
2023/06/27 06:22:27;;;;;;;8.20;1.92;;;16.90;99.90;;;;;;5158208;27;20450;-88
2023/06/27 06:24:54;;;;;;;8.07;1.73;;;17.00;99.90;;;;;;5137973;27;20074;-88
2023/06/27 06:27:21;;;;;;;5.97;1.70;;;17.10;99.90;;;;;;5154602;27;20078;-87
2023/06/27 06:29:47;;;;;;;7.05;1.88;;;17.20;99.90;;;;;;5158182;27;20394;-88
2023/06/27 06:32:14;;;;;;;7.38;1.40;;;17.20;99.90;;;;;;5140467;27;20045;-88
2023/06/27 06:34:41;;;;;;;7.00;1.50;;;17.30;99.90;;;;;;5154793;27;20543;-87
2023/06/27 06:37:07;;;;;;;8.00;1.30;;;17.40;99.90;;;;;;5140218;27;20046;-87
2023/06/27 06:39:35;;;;;;;4.82;1.38;;;17.50;99.90;;;;;;5156128;27;20038;-87
2023/06/27 06:42:02;;;;;;;9.07;1.50;;;17.70;99.90;;;;;;5131283;28;20047;-88
2023/06/27 06:44:29;;;;;;;5.90;1.15;;;17.80;99.90;;;;;;5135252;27;20044;-89
2023/06/27 06:46:55;;;;;;;5.15;1.35;;;17.80;99.90;;;;;;5171642;27;20042;-90
2023/06/27 06:49:22;;;;;;;4.13;1.40;;;18.00;99.90;;;;;;5148353;27;20038;-89
2023/06/27 06:51:49;;;;;;;6.65;1.40;;;18.00;99.90;;;;;;5154375;27;20042;-87
2023/06/27 06:54:15;;;;;;;7.28;1.45;;;18.10;99.90;;;;;;5153858;27;20042;-89
2023/06/27 06:56:42;;;;;;;8.75;1.30;;;18.20;99.90;;;;;;5134037;28;20055;-90
2023/06/27 06:59:12;;;;;;;3.97;1.15;;;18.30;99.90;;;;;;5136632;27;20031;-88
2023/06/27 07:01:39;;;;;;;3.35;1.23;;;18.40;99.90;;;;;;5172072;27;20046;-90
2023/06/27 07:04:05;;;;;;;4.50;1.25;;;18.50;99.90;;;;;;5189416;27;20041;-91
2023/06/27 07:06:32;;;;;;;8.25;1.58;;;18.60;99.90;;;;;;5136878;27;20039;-92
2023/06/27 07:09:00;;;;;;;5.35;1.20;;;18.60;99.90;;;;;;5171609;27;20035;-89
2023/06/27 07:11:27;;;;;;;5.72;1.10;;;18.70;99.90;;;;;;5137231;27;20039;-88
2023/06/27 07:13:53;;;;;;;8.73;1.10;;;18.80;99.90;;;;;;5156006;27;20045;-88
2023/06/27 07:16:20;;;;;;;2.22;1.00;;;18.80;99.90;;;;;;5137820;27;20091;-92
2023/06/27 07:18:47;;;;;;;5.18;1.05;;;18.90;99.90;;;;;;5175223;27;20046;-90
2023/06/27 07:21:14;;;;;;;3.67;1.08;;;19.00;99.90;;;;;;5175476;27;20039;-90
2023/06/27 07:23:40;;;;;;;5.72;1.45;;;19.10;99.90;;;;;;5175547;27;20042;-90
2023/06/27 07:26:07;;;;;;;4.68;1.00;;;19.20;99.90;;;;;;5157483;27;20034;-87
2023/06/27 07:28:34;;;;;;;3.55;0.90;;;19.30;99.90;;;;;;5139857;27;20031;-87
2023/06/27 07:31:01;;;;;;;5.05;0.98;;;19.40;99.90;;;;;;5174443;27;20042;-87
2023/06/27 07:33:28;;;;;;;4.20;1.13;;;19.50;99.90;;;;;;5140330;27;20845;-87
2023/06/27 07:35:56;;;;;;;4.35;1.00;;;19.60;99.90;;;;;;5141087;27;20561;-87
2023/06/27 07:38:24;;;;;;;5.40;1.00;;;19.70;99.90;;;;;;5158027;27;20035;-87
2023/06/27 07:40:51;;;;;;;3.08;1.10;;;19.70;99.90;;;;;;5136662;27;20088;-87
2023/06/27 07:43:18;;;;;;;4.05;1.05;;;19.90;99.90;;;;;;5124007;27;20051;-87
2023/06/27 07:45:45;;;;;;;2.83;1.00;;;20.00;99.90;;;;;;5140903;27;20039;-87
2023/06/27 07:48:11;;;;;;;5.18;1.00;;;20.10;99.90;;;;;;5156624;27;20045;-87
2023/06/27 07:50:38;;;;;;;4.50;1.08;;;20.20;99.90;;;;;;5140257;27;20042;-85
2023/06/27 07:53:05;;;;;;;2.60;0.88;;;20.30;99.90;;;;;;5158056;27;20039;-85
2023/06/27 07:55:32;;;;;;;5.90;1.17;;;20.30;99.90;;;;;;5140733;27;20045;-86
2023/06/27 07:57:58;;;;;;;3.13;0.93;;;20.40;99.90;;;;;;5136732;27;20042;-85
2023/06/27 08:00:25;;;;;;;6.63;1.10;;;20.70;99.90;;;;;;5120299;27;20414;-86
2023/06/27 08:02:52;;;;;;;3.88;0.88;;;20.80;99.90;;;;;;5120831;27;20039;-85
2023/06/27 08:05:18;;;;;;;4.45;1.00;;;20.80;99.90;;;;;;5119608;27;20126;-86
2023/06/27 08:07:45;;;;;;;4.35;1.15;;;20.90;99.90;;;;;;5137609;27;20039;-87
2023/06/27 08:10:12;;;;;;;6.43;1.23;;;20.70;99.90;;;;;;5140546;27;20043;-87
2023/06/27 08:12:39;;;;;;;7.95;1.20;;;20.80;99.90;;;;;;5139979;27;20042;-88
2023/06/27 08:15:06;;;;;;;3.35;1.10;;;20.60;99.90;;;;;;5174673;27;20558;-88
2023/06/27 08:17:32;;;;;;;2.38;0.73;;;20.60;99.90;;;;;;5139846;27;20095;-87
2023/06/27 08:19:59;;;;;;;4.70;1.08;;;20.80;99.90;;;;;;5140132;27;20038;-85
2023/06/27 08:22:26;;;;;;;5.63;1.27;;;20.40;99.90;;;;;;5139781;27;20065;-85
2023/06/27 08:24:53;;;;;;;4.72;1.08;;;20.30;99.90;;;;;;5140278;27;20455;-88
2023/06/27 08:27:19;;;;;;;2.38;1.00;;;20.40;99.90;;;;;;5139875;27;20778;-88
2023/06/27 08:29:46;;;;;;;4.10;1.15;;;20.30;99.90;;;;;;5156681;27;20113;-87
2023/06/27 08:32:13;;;;;;;5.85;1.20;;;20.40;99.90;;;;;;5139938;27;20039;-88
2023/06/27 08:34:41;;;;;;;7.88;1.30;;;20.40;99.90;;;;;;5139905;27;20506;-88
2023/06/27 08:37:08;;;;;;;4.20;1.10;;;20.70;99.90;;;;;;5140287;27;20046;-88
2023/06/27 08:39:35;;;;;;;2.83;0.90;;;20.80;99.90;;;;;;5174638;27;20060;-88
2023/06/27 08:42:02;;;;;;;4.57;1.08;;;20.90;99.90;;;;;;5139020;27;20130;-89
2023/06/27 08:44:28;;;;;;;5.57;1.08;;;20.90;99.90;;;;;;5156979;27;20125;-87
2023/06/27 08:47:03;;;;;;;6.35;1.00;;;21.00;99.90;;;;;;5139633;27;20122;-87
2023/06/27 08:49:33;;;;;;;4.57;1.10;;;21.00;99.90;;;;;;5173123;27;20651;-86
2023/06/27 08:52:02;;;;;;;8.00;1.10;;;21.10;99.90;;;;;;5156558;27;20070;-88
2023/06/27 08:54:34;;;;;;;4.05;1.10;;;21.10;99.90;;;;;;5156814;27;20110;-88
2023/06/27 08:57:03;;;;;;;4.65;1.27;;;21.20;99.90;;;;;;5174194;27;20049;-88
2023/06/27 08:59:37;;;;;;;3.35;0.90;;;21.20;99.70;;;;;;5173252;27;20660;-86
2023/06/27 09:02:06;;;;;;;5.13;1.10;;;21.10;99.90;;;;;;5173117;27;20039;-88
2023/06/27 09:04:33;;;;;;;3.78;0.90;;;21.00;99.90;;;;;;5155734;27;20034;-88
2023/06/27 09:07:01;;;;;;;3.53;1.13;;;21.10;99.90;;;;;;5172986;27;20035;-88
2023/06/27 09:09:30;;;;;;;7.05;1.30;;;21.20;99.90;;;;;;5139428;27;20035;-88
2023/06/27 09:12:01;;;;;;;2.88;1.00;;;20.90;99.90;;;;;;5173434;27;20444;-89
2023/06/27 09:14:28;;;;;;;3.88;1.00;;;20.80;99.90;;;;;;5191182;27;20042;-88
2023/06/27 09:16:55;;;;;;;3.22;1.05;;;20.70;99.90;;;;;;5156064;27;20042;-87
2023/06/27 09:19:22;;;;;;;3.60;1.00;;;20.50;99.90;;;;;;5138038;27;20099;-88
2023/06/27 09:21:50;;;;;;;3.28;1.17;;;20.40;99.90;;;;;;5172801;27;20042;-88
2023/06/27 09:24:25;;;;;;;6.28;1.20;;;20.60;99.90;;;;;;5152223;27;20088;-86
2023/06/27 09:26:52;;;;;;;5.55;1.00;;;20.90;99.90;;;;;;5136901;27;20027;-87
2023/06/27 09:29:19;;;;;;;6.80;1.10;;;21.20;99.90;;;;;;5135559;27;20506;-87
2023/06/27 09:31:46;;;;;;;4.80;1.20;;;21.50;99.40;;;;;;5137475;27;20559;-87
2023/06/27 09:34:13;;;;;;;5.05;1.02;;;21.50;99.90;;;;;;5171651;27;20043;-87
2023/06/27 09:36:40;;;;;;;3.83;1.00;;;21.50;99.10;;;;;;5171461;27;20456;-87
2023/06/27 09:39:09;;;;;;;4.97;1.27;;;21.40;99.90;;;;;;5155770;27;20103;-88
2023/06/27 09:41:44;;;;;;;4.15;1.20;;;21.60;99.90;;;;;;5172471;27;20106;-88
2023/06/27 09:44:16;;;;;;;5.05;0.90;;;21.80;99.30;;;;;;5176043;27;20044;-87
2023/06/27 09:46:47;;;;;;;6.50;1.25;;;22.00;99.90;;;;;;5159672;27;20071;-88
2023/06/27 09:49:21;;;;;;;3.38;1.13;;;22.00;99.60;;;;;;5176784;27;20394;-88
2023/06/27 09:51:49;;;;;;;9.45;1.13;;;22.00;99.60;;;;;;5175811;27;20397;-86
2023/06/27 09:54:21;;;;;;;6.78;1.70;;;22.20;98.70;;;;;;5160152;27;20435;-87
2023/06/27 09:56:51;;;;;;;5.63;1.00;;;21.80;97.60;;;;;;5194768;27;20108;-87
2023/06/27 09:59:22;;;;;;;3.50;0.73;;;21.70;99.00;;;;;;5176890;27;20692;-86
2023/06/27 10:01:49;;;;;;;3.85;0.85;;;21.50;99.40;;;;;;5175500;27;20036;-87
2023/06/27 10:04:16;;;;;;;3.10;0.90;;;21.30;99.70;;;;;;5161832;27;20125;-87
2023/06/27 10:06:44;;;;;;;3.10;0.88;;;21.20;99.70;;;;;;5142432;27;20090;-87
2023/06/27 10:09:11;;;;;;;6.82;1.17;;;21.30;98.70;;;;;;5155942;27;20122;-87
2023/06/27 10:11:39;;;;;;;3.75;1.00;;;21.60;98.60;;;;;;5164799;27;20038;-86
2023/06/27 10:14:07;;;;;;;5.18;1.17;;;21.80;99.00;;;;;;5176158;27;20038;-86
2023/06/27 10:16:34;;;;;;;4.68;0.82;;;22.00;98.30;;;;;;5170240;27;20376;-86
2023/06/27 10:19:03;;;;;;;4.13;0.88;;;22.30;98.50;;;;;;5160220;27;20093;-86
2023/06/27 10:21:30;;;;;;;2.92;1.10;;;22.20;98.10;;;;;;5176325;27;20061;-89
2023/06/27 10:24:00;;;;;;;3.95;1.08;;;22.10;98.60;;;;;;5176191;27;20049;-87
2023/06/27 10:26:26;;;;;;;7.40;1.30;;;21.80;98.00;;;;;;5174450;27;20057;-87
2023/06/27 10:28:53;;;;;;;3.55;0.80;;;21.70;98.70;;;;;;5175440;27;20042;-87
2023/06/27 10:31:45;;;;;;;2.78;0.93;;;21.80;98.70;;;;;;5174741;27;20057;-86
2023/06/27 10:34:24;;;;;;;1.95;0.73;;;22.10;98.60;;;;;;5172203;27;20050;-86
2023/06/27 10:36:58;;;;;;;4.28;1.02;;;22.20;98.20;;;;;;5157162;27;20533;-86
2023/06/27 10:39:30;;;;;;;5.18;1.17;;;22.20;97.90;;;;;;5154028;27;20457;-86
2023/06/27 10:42:15;;;;;;;4.40;1.00;;;22.60;97.90;;;;;;5136894;27;20051;-86
2023/06/27 10:45:06;;;;;;;10.02;1.40;;;22.60;97.90;;;;;;5143762;27;20113;-86
2023/06/27 10:47:41;;;;;;;6.13;1.02;;;22.70;98.20;;;;;;5174437;27;20531;-86
2023/06/27 10:50:13;;;;;;;4.90;1.10;;;22.80;97.30;;;;;;5178151;27;20031;-84
2023/06/27 10:52:59;;;;;;;3.20;0.80;;;22.90;98.20;;;;;;5178559;27;20039;-84
2023/06/27 10:55:29;;;;;;;4.40;0.80;;;22.80;96.60;;;;;;5178468;27;20078;-86
2023/06/27 10:58:10;;;;;;;2.25;0.95;;;22.50;96.90;;;;;;5161522;27;20500;-85
2023/06/27 11:00:46;;;;;;;3.70;1.08;;;22.40;97.50;;;;;;5178185;27;20034;-86
2023/06/27 11:03:18;;;;;;;2.50;0.80;;;22.00;97.10;;;;;;5158394;27;20828;-86
2023/06/27 11:05:51;;;;;;;4.15;1.00;;;21.80;97.30;;;;;;5157408;27;20769;-86
2023/06/27 11:08:19;;;;;;;2.28;0.70;;;22.10;98.00;;;;;;5145489;27;20077;-85
2023/06/27 11:11:08;;;;;;;4.00;1.13;;;22.20;97.50;;;;;;5174902;27;20402;-86
2023/06/27 11:13:38;;;;;;;4.07;0.77;;;22.20;97.40;;;;;;5157713;27;20078;-86
2023/06/27 11:16:05;;;;;;;8.25;1.20;;;22.10;97.80;;;;;;5174547;27;20069;-86
2023/06/27 11:18:33;;;;;;;5.45;0.95;;;21.90;97.80;;;;;;5140772;27;20038;-86
2023/06/27 11:21:00;;;;;;;3.97;1.08;;;21.70;97.40;;;;;;5140483;27;20043;-85
2023/06/27 11:23:29;;;;;;;6.22;1.10;;;21.80;98.00;;;;;;5127593;27;20098;-85
2023/06/27 11:25:56;;;;;;;14.38;1.85;;;21.90;98.10;;;;;;5160826;27;20030;-85
2023/06/27 11:28:23;;;;;;;3.35;0.80;;;22.10;98.30;;;;;;5144116;27;20072;-85
2023/06/27 11:30:58;;;;;;;5.07;1.00;;;22.30;97.80;;;;;;5177900;27;20049;-86
2023/06/27 11:33:25;;;;;;;4.22;1.08;;;22.50;98.20;;;;;;5177998;27;20034;-85
2023/06/27 11:35:55;;;;;;;3.70;1.10;;;22.40;98.20;;;;;;5143743;27;20042;-85
2023/06/27 11:38:23;;;;;;;5.15;1.20;;;22.30;98.30;;;;;;5157932;27;20566;-86
2023/06/27 11:40:51;;;;;;;3.90;1.20;;;22.20;98.30;;;;;;5140283;27;20038;-86
2023/06/27 11:43:18;;;;;;;6.55;1.45;;;22.00;98.10;;;;;;5157422;27;20085;-86
2023/06/27 11:45:51;;;;;;;4.05;1.15;;;22.10;98.30;;;;;;5186929;27;20525;-86
2023/06/27 11:48:18;;;;;;;5.05;1.30;;;22.20;97.80;;;;;;5178263;27;20046;-86
2023/06/27 11:51:05;;;;;;;5.57;1.10;;;21.90;97.80;;;;;;5177621;27;20129;-86
2023/06/27 11:53:33;;;;;;;5.85;1.20;;;21.90;98.10;;;;;;5189742;27;20078;-85
2023/06/27 11:56:00;;;;;;;5.10;1.13;;;21.90;98.10;;;;;;5177936;27;20117;-85
2023/06/27 11:58:37;;;;;;;5.18;1.10;;;22.00;98.40;;;;;;5160595;27;20053;-86
2023/06/27 12:01:15;;;;;;;4.35;0.80;;;22.00;97.70;;;;;;5195160;27;20498;-86
2023/06/27 12:03:49;;;;;;;6.50;1.15;;;22.00;97.90;;;;;;5160440;27;20035;-85
2023/06/27 12:06:37;;;;;;;7.13;1.23;;;21.90;97.70;;;;;;5160258;27;20034;-87
2023/06/27 12:09:07;;;;;;;4.32;1.20;;;21.80;97.10;;;;;;5161307;27;20882;-87
2023/06/27 12:11:35;;;;;;;5.35;1.02;;;21.80;97.60;;;;;;5155325;27;20041;-87
2023/06/27 12:14:03;;;;;;;6.03;1.15;;;21.90;98.10;;;;;;5174090;27;20046;-86
2023/06/27 12:16:36;;;;;;;6.43;1.00;;;22.00;98.30;;;;;;5156344;27;20046;-85
2023/06/27 12:19:03;;;;;;;5.70;1.00;;;22.10;98.00;;;;;;5140879;27;20038;-86
2023/06/27 12:21:30;;;;;;;5.03;1.20;;;22.10;97.80;;;;;;5139491;27;20422;-85
2023/06/27 12:23:57;;;;;;;6.72;1.00;;;22.20;98.10;;;;;;5139280;27;20451;-85
2023/06/27 12:26:24;;;;;;;2.17;0.70;;;22.10;98.10;;;;;;5138754;27;20130;-85
2023/06/27 12:29:09;;;;;;;4.72;0.95;;;22.10;97.70;;;;;;5155365;27;20043;-85
2023/06/27 12:31:37;;;;;;;4.72;1.02;;;22.20;97.10;;;;;;5138995;27;20037;-85
2023/06/27 12:34:07;;;;;;;3.95;1.00;;;22.20;97.20;;;;;;5154952;27;20410;-85
2023/06/27 12:36:34;;;;;;;8.05;1.27;;;22.20;97.50;;;;;;5172596;27;20035;-84
2023/06/27 12:39:01;;;;;;;5.70;1.10;;;22.00;97.30;;;;;;5157437;27;20050;-85
2023/06/27 12:41:28;;;;;;;4.22;0.90;;;22.10;97.20;;;;;;5155251;27;20411;-86
2023/06/27 12:43:55;;;;;;;4.78;1.02;;;22.10;97.50;;;;;;5155301;27;20134;-85
2023/06/27 12:46:22;;;;;;;4.53;1.00;;;22.00;97.50;;;;;;5156005;27;20150;-85
2023/06/27 12:48:49;;;;;;;4.70;1.10;;;21.90;97.80;;;;;;5138170;27;20038;-86
2023/06/27 12:51:16;;;;;;;3.40;1.05;;;21.90;98.10;;;;;;5138799;27;20134;-85